Time;durP1;ratioP1;P1;durP2;ratioP2;P2;SDS_P1;SDS_P2;PMS_P1;PMS_P2;Temp;Humidity;BMP_temperature;BMP_pressure;BME280_temperature;BME280_humidity;BME280_pressure;Samples;Min_cycle;Max_cycle;Signal;HPM_P1;HPM_P2
2022/12/08 00:01:22;;;;;;;5.90;1.60;;;2.50;99.90;;;;;;4977568;28;20060;-88
2022/12/08 00:03:49;;;;;;;4.15;1.15;;;2.60;99.90;;;;;;4993771;28;20406;-87
2022/12/08 00:09:41;;;;;;;;;;;2.70;99.90;;;;;;4922145;28;20099;-88
2022/12/08 00:12:12;;;;;;;3.40;1.40;;;2.70;99.90;;;;;;4970045;28;20124;-89
2022/12/08 00:14:41;;;;;;;4.03;0.93;;;2.70;99.90;;;;;;4979968;28;20410;-88
2022/12/08 00:17:08;;;;;;;4.35;1.50;;;2.70;99.90;;;;;;4961967;28;20046;-88
2022/12/08 00:19:34;;;;;;;4.57;1.40;;;2.80;99.90;;;;;;4992104;28;20049;-88
2022/12/08 00:22:01;;;;;;;2.85;1.00;;;2.80;99.90;;;;;;4978574;28;20043;-88
2022/12/08 00:24:38;;;;;;;7.80;1.65;;;2.80;99.90;;;;;;4961093;28;20452;-87
2022/12/08 00:27:09;;;;;;;6.47;2.00;;;2.80;99.90;;;;;;4975369;28;20085;-88
2022/12/08 00:29:34;;;;;;;4.13;1.25;;;2.80;99.90;;;;;;4976138;28;20038;-87
2022/12/08 00:32:03;;;;;;;3.35;1.55;;;2.90;99.90;;;;;;4977250;28;20445;-86
2022/12/08 00:34:30;;;;;;;4.00;1.30;;;2.90;99.90;;;;;;4972940;28;20140;-87
2022/12/08 00:36:56;;;;;;;4.57;1.13;;;2.90;99.90;;;;;;5000064;28;20061;-88
2022/12/08 00:39:22;;;;;;;3.00;0.90;;;3.00;99.90;;;;;;4973524;28;20051;-88
2022/12/08 00:44:35;;;;;;;4.07;1.52;;;2.90;99.90;;;;;;4974124;28;20331;-88
2022/12/08 00:47:00;;;;;;;3.95;1.30;;;2.90;99.90;;;;;;4971607;28;20043;-88
2022/12/08 00:49:26;;;;;;;4.00;1.35;;;2.90;99.90;;;;;;4973352;28;20033;-89
2022/12/08 00:51:52;;;;;;;4.05;1.42;;;2.90;99.90;;;;;;4975094;28;20073;-87
2022/12/08 00:54:18;;;;;;;3.53;1.17;;;2.90;99.90;;;;;;4978668;28;20042;-89
2022/12/08 00:56:45;;;;;;;6.80;1.48;;;2.90;99.90;;;;;;4959985;28;20042;-88
2022/12/08 00:59:11;;;;;;;4.43;1.30;;;2.90;99.90;;;;;;4973009;28;20051;-88
2022/12/08 01:01:40;;;;;;;4.90;1.40;;;2.90;99.90;;;;;;4955373;28;20054;-88
2022/12/08 01:04:09;;;;;;;3.05;1.42;;;2.90;99.90;;;;;;4985438;28;20046;-88
2022/12/08 01:06:35;;;;;;;4.38;1.40;;;2.90;99.90;;;;;;4970185;28;20048;-88
2022/12/08 01:09:06;;;;;;;5.30;1.40;;;2.90;99.90;;;;;;4973687;28;20042;-88
2022/12/08 01:11:33;;;;;;;6.70;1.05;;;2.90;99.90;;;;;;4972984;28;20042;-87
2022/12/08 01:13:59;;;;;;;4.22;1.17;;;2.80;99.90;;;;;;4970744;28;20042;-89
2022/12/08 01:16:28;;;;;;;2.30;0.98;;;2.80;99.90;;;;;;4971152;28;20101;-87
2022/12/08 01:18:59;;;;;;;3.45;1.15;;;2.80;99.90;;;;;;4973244;28;20030;-88
2022/12/08 01:21:25;;;;;;;3.55;0.80;;;2.80;99.90;;;;;;4974064;28;20249;-88
2022/12/08 01:23:54;;;;;;;2.05;0.77;;;2.80;99.90;;;;;;4971660;28;20736;-87
2022/12/08 01:26:21;;;;;;;1.13;0.80;;;2.90;99.90;;;;;;4974316;28;20088;-87
2022/12/08 01:28:47;;;;;;;3.67;0.80;;;2.80;99.90;;;;;;4992106;28;20057;-88
2022/12/08 01:31:18;;;;;;;0.95;0.80;;;2.80;99.90;;;;;;4974280;28;20038;-88
2022/12/08 01:33:45;;;;;;;1.30;0.70;;;2.80;99.90;;;;;;4974795;28;20042;-87
2022/12/08 01:36:23;;;;;;;4.07;0.80;;;2.80;99.90;;;;;;4970091;28;20117;-88
2022/12/08 01:38:52;;;;;;;1.27;0.80;;;2.80;99.90;;;;;;4989018;28;20050;-88
2022/12/08 01:41:20;;;;;;;1.95;0.60;;;2.70;99.90;;;;;;4993088;28;20034;-88
2022/12/08 01:44:12;;;;;;;1.52;0.70;;;2.70;99.90;;;;;;4962004;28;21058;-88
2022/12/08 01:46:47;;;;;;;1.20;0.75;;;2.60;99.90;;;;;;4954640;28;20054;-88
2022/12/08 01:49:16;;;;;;;2.92;0.63;;;2.60;99.90;;;;;;4976618;28;20445;-88
2022/12/08 01:51:49;;;;;;;2.58;0.50;;;2.60;99.90;;;;;;4979351;28;20065;-87
2022/12/08 01:54:16;;;;;;;1.30;0.80;;;2.60;99.90;;;;;;4961432;28;20034;-88
2022/12/08 01:56:49;;;;;;;1.20;0.60;;;2.60;99.90;;;;;;4977994;28;20426;-88
2022/12/08 01:59:16;;;;;;;1.38;0.70;;;2.60;99.90;;;;;;4967165;28;20329;-88
2022/12/08 02:01:44;;;;;;;1.05;0.40;;;2.60;99.90;;;;;;4980081;28;20066;-87
2022/12/08 02:04:10;;;;;;;1.88;0.57;;;2.50;99.90;;;;;;4976566;28;20116;-88
2022/12/08 02:06:40;;;;;;;0.68;0.65;;;2.60;99.90;;;;;;4985488;28;20042;-88
2022/12/08 02:09:07;;;;;;;1.23;0.70;;;2.60;99.90;;;;;;4981242;28;20830;-88
2022/12/08 02:11:35;;;;;;;4.10;0.70;;;2.60;99.90;;;;;;4965638;28;20053;-87
2022/12/08 02:14:05;;;;;;;4.18;0.70;;;2.70;99.90;;;;;;4976478;28;20568;-88
2022/12/08 02:16:49;;;;;;;3.35;0.70;;;2.70;99.90;;;;;;4980906;28;20125;-87
2022/12/08 02:19:46;;;;;;;2.17;0.47;;;2.80;99.90;;;;;;4959357;28;20038;-87
2022/12/08 02:22:25;;;;;;;1.98;0.40;;;2.80;99.90;;;;;;4963988;28;20289;-88
2022/12/08 02:25:25;;;;;;;1.40;0.35;;;2.90;99.90;;;;;;4978149;28;20053;-87
2022/12/08 02:28:06;;;;;;;2.58;0.63;;;2.80;99.90;;;;;;4973589;28;20117;-88
2022/12/08 02:31:00;;;;;;;2.13;0.70;;;2.80;99.90;;;;;;4974491;28;20061;-88
2022/12/08 02:34:00;;;;;;;3.55;0.98;;;2.80;99.90;;;;;;4994704;28;20418;-87
2022/12/08 02:36:31;;;;;;;1.83;0.60;;;2.80;99.90;;;;;;4994834;28;20058;-87
2022/12/08 02:39:20;;;;;;;1.75;0.68;;;2.90;99.90;;;;;;4994440;28;20046;-88
2022/12/08 02:42:13;;;;;;;1.15;0.50;;;2.90;99.90;;;;;;4978566;28;20041;-87
2022/12/08 02:44:57;;;;;;;1.35;0.45;;;2.90;99.90;;;;;;4954526;28;20042;-88
2022/12/08 02:47:29;;;;;;;2.05;0.50;;;2.90;99.90;;;;;;4978149;28;20050;-88
2022/12/08 02:49:56;;;;;;;4.28;0.85;;;2.90;99.90;;;;;;4978156;28;20173;-88
2022/12/08 02:52:21;;;;;;;3.78;0.88;;;2.90;99.90;;;;;;4977869;28;20081;-88
2022/12/08 02:55:02;;;;;;;2.65;0.60;;;2.90;99.90;;;;;;4992796;28;20462;-89
2022/12/08 02:57:33;;;;;;;1.40;0.60;;;2.90;99.90;;;;;;4977505;28;20046;-88
2022/12/08 03:00:21;;;;;;;2.67;0.68;;;2.90;99.90;;;;;;4977744;28;20062;-88
2022/12/08 03:03:12;;;;;;;2.65;0.50;;;2.90;99.90;;;;;;4966620;28;20125;-88
2022/12/08 03:06:10;;;;;;;3.25;0.55;;;2.80;99.90;;;;;;4974065;28;20088;-88
2022/12/08 03:09:08;;;;;;;1.33;0.68;;;2.80;99.90;;;;;;4972549;28;20282;-88
2022/12/08 03:11:45;;;;;;;2.03;0.70;;;2.80;99.90;;;;;;4962494;28;20084;-88
2022/12/08 03:14:16;;;;;;;1.38;0.55;;;2.80;99.90;;;;;;4974468;28;20046;-88
2022/12/08 03:16:46;;;;;;;1.83;0.60;;;2.90;99.90;;;;;;4961270;28;20278;-88
2022/12/08 03:19:16;;;;;;;0.80;0.50;;;2.80;99.90;;;;;;4958280;28;20046;-88
2022/12/08 03:21:44;;;;;;;1.80;0.60;;;2.80;99.90;;;;;;4974865;28;20050;-87
2022/12/08 03:24:13;;;;;;;1.77;0.75;;;2.80;99.90;;;;;;4972527;28;20041;-88
2022/12/08 03:26:53;;;;;;;1.58;0.60;;;2.80;99.90;;;;;;4980384;28;20046;-87
2022/12/08 03:29:19;;;;;;;1.95;0.55;;;2.80;99.90;;;;;;4972703;28;20049;-89
2022/12/08 03:31:53;;;;;;;1.55;0.52;;;2.80;99.90;;;;;;4974104;28;20043;-89
2022/12/08 03:34:20;;;;;;;1.77;0.50;;;2.70;99.90;;;;;;4993240;28;20057;-88
2022/12/08 03:36:45;;;;;;;2.70;0.55;;;2.80;99.90;;;;;;4977790;28;20202;-88
2022/12/08 03:39:14;;;;;;;0.73;0.28;;;2.80;99.90;;;;;;4978710;28;20042;-87
2022/12/08 03:41:39;;;;;;;1.85;0.30;;;2.70;99.90;;;;;;4976300;28;20053;-88
2022/12/08 03:44:05;;;;;;;0.55;0.20;;;2.70;99.90;;;;;;4975670;28;20046;-88
2022/12/08 03:46:31;;;;;;;1.70;0.32;;;2.60;99.90;;;;;;4993128;28;20050;-88
2022/12/08 03:48:57;;;;;;;2.17;0.50;;;2.60;99.90;;;;;;4971595;28;20034;-88
2022/12/08 03:51:23;;;;;;;1.70;0.40;;;2.60;99.90;;;;;;4966359;28;20125;-88
2022/12/08 03:53:49;;;;;;;0.20;0.20;;;2.50;99.90;;;;;;4975186;28;20445;-88
2022/12/08 03:56:25;;;;;;;0.85;0.30;;;2.50;99.90;;;;;;4986376;28;20122;-88
2022/12/08 03:58:51;;;;;;;0.93;0.47;;;2.40;99.90;;;;;;4970388;28;20132;-88
2022/12/08 04:01:17;;;;;;;0.93;0.55;;;2.40;99.90;;;;;;4961324;28;20199;-88
2022/12/08 04:03:43;;;;;;;0.20;0.20;;;2.40;99.90;;;;;;4974800;28;20050;-88
2022/12/08 04:06:09;;;;;;;1.75;0.30;;;2.30;99.90;;;;;;4984597;28;20156;-88
2022/12/08 04:08:35;;;;;;;1.70;0.20;;;2.30;99.90;;;;;;4979617;28;20057;-88
2022/12/08 04:11:01;;;;;;;0.30;0.30;;;2.30;99.90;;;;;;4974116;28;20082;-86
2022/12/08 04:13:32;;;;;;;2.15;0.40;;;2.30;99.90;;;;;;4966885;28;20225;-88
2022/12/08 04:15:58;;;;;;;1.10;0.30;;;2.30;99.90;;;;;;4959261;28;20062;-87
2022/12/08 04:18:23;;;;;;;2.63;0.32;;;2.30;99.90;;;;;;4961502;28;20133;-87
2022/12/08 04:20:49;;;;;;;0.65;0.30;;;2.30;99.90;;;;;;4981591;28;20291;-88
2022/12/08 04:23:15;;;;;;;1.42;0.40;;;2.30;99.90;;;;;;4975472;28;20053;-88
2022/12/08 04:25:44;;;;;;;2.35;0.50;;;2.30;99.90;;;;;;4982274;28;20053;-87
2022/12/08 04:28:10;;;;;;;0.70;0.40;;;2.30;99.90;;;;;;4975714;28;20048;-88
2022/12/08 04:30:36;;;;;;;0.30;0.30;;;2.30;99.90;;;;;;4960096;28;20046;-88
2022/12/08 04:33:01;;;;;;;2.95;0.45;;;2.40;99.90;;;;;;4959500;28;20038;-87
2022/12/08 04:35:30;;;;;;;2.10;0.38;;;2.30;99.90;;;;;;4978123;28;20042;-88
2022/12/08 04:37:56;;;;;;;2.63;0.52;;;2.40;99.90;;;;;;4973666;28;20540;-88
2022/12/08 04:40:25;;;;;;;1.48;0.45;;;2.40;99.90;;;;;;4958965;28;20049;-87
2022/12/08 04:42:51;;;;;;;1.50;0.40;;;2.40;99.90;;;;;;4958082;28;20114;-89
2022/12/08 04:45:17;;;;;;;0.30;0.30;;;2.30;99.90;;;;;;4979230;28;20124;-87
2022/12/08 04:47:43;;;;;;;1.17;0.40;;;2.40;99.90;;;;;;4975245;28;20145;-87
2022/12/08 04:50:12;;;;;;;1.10;0.77;;;2.40;99.90;;;;;;4957916;28;20034;-88
2022/12/08 04:52:38;;;;;;;1.05;0.30;;;2.40;99.90;;;;;;4977074;28;20038;-88
2022/12/08 04:55:05;;;;;;;1.30;0.65;;;2.40;99.90;;;;;;4959442;28;20169;-88
2022/12/08 04:57:31;;;;;;;0.88;0.35;;;2.40;99.90;;;;;;4973081;28;20089;-88
2022/12/08 04:59:57;;;;;;;0.77;0.40;;;2.40;99.90;;;;;;4972054;28;20157;-88
2022/12/08 05:02:23;;;;;;;1.05;0.50;;;2.40;99.90;;;;;;4989261;28;20506;-88
2022/12/08 05:04:49;;;;;;;0.98;0.30;;;2.40;99.90;;;;;;4971268;28;20053;-88
2022/12/08 05:07:14;;;;;;;1.88;0.55;;;2.40;99.90;;;;;;4974733;28;20818;-88
2022/12/08 05:09:40;;;;;;;0.50;0.30;;;2.40;99.90;;;;;;4972332;28;20186;-88
2022/12/08 05:12:06;;;;;;;0.75;0.47;;;2.40;99.90;;;;;;4961780;28;20042;-88
2022/12/08 05:14:32;;;;;;;0.90;0.32;;;2.40;99.90;;;;;;4972031;28;20099;-88
2022/12/08 05:16:58;;;;;;;1.50;0.57;;;2.50;99.90;;;;;;4972202;28;20046;-87
2022/12/08 05:19:24;;;;;;;2.08;0.55;;;2.40;99.90;;;;;;4977616;28;20088;-88
2022/12/08 05:21:50;;;;;;;1.30;0.30;;;2.40;99.90;;;;;;4977377;28;20137;-88
2022/12/08 05:24:15;;;;;;;1.95;0.45;;;2.50;99.90;;;;;;4976793;28;20442;-88
2022/12/08 05:26:44;;;;;;;3.13;1.77;;;2.40;99.90;;;;;;4956032;28;20069;-86
2022/12/08 05:29:10;;;;;;;0.80;0.50;;;2.40;99.90;;;;;;4972087;28;20052;-88
2022/12/08 05:31:36;;;;;;;1.20;0.50;;;2.40;99.90;;;;;;4955337;28;20042;-88
2022/12/08 05:34:01;;;;;;;0.40;0.40;;;2.40;99.90;;;;;;4972046;28;20050;-89
2022/12/08 05:36:27;;;;;;;0.70;0.50;;;2.40;99.90;;;;;;4962762;28;20265;-88
2022/12/08 05:39:08;;;;;;;0.55;0.32;;;2.30;99.90;;;;;;4953343;28;20070;-88
2022/12/08 05:41:33;;;;;;;1.45;0.30;;;2.30;99.90;;;;;;4974901;28;20038;-88
2022/12/08 05:43:59;;;;;;;1.52;0.80;;;2.20;99.90;;;;;;4960813;28;20046;-88
2022/12/08 05:46:27;;;;;;;1.20;0.50;;;2.20;99.90;;;;;;4959470;28;20378;-87
2022/12/08 05:48:53;;;;;;;2.65;0.55;;;2.30;99.90;;;;;;4970371;28;20046;-89
2022/12/08 05:51:22;;;;;;;1.05;0.50;;;2.20;99.90;;;;;;4981907;28;20065;-88
2022/12/08 05:53:55;;;;;;;1.13;0.55;;;2.20;99.90;;;;;;4971414;28;20526;-88
2022/12/08 05:56:27;;;;;;;1.73;0.60;;;2.20;99.90;;;;;;4961702;28;20320;-87
2022/12/08 05:58:53;;;;;;;0.47;0.40;;;2.20;99.90;;;;;;4957724;28;20115;-88
2022/12/08 06:01:23;;;;;;;1.65;0.52;;;2.20;99.90;;;;;;4956479;28;20502;-88
2022/12/08 06:03:49;;;;;;;1.95;0.60;;;2.20;99.90;;;;;;4960254;28;20773;-88
2022/12/08 06:06:15;;;;;;;0.30;0.30;;;2.20;99.90;;;;;;4972288;28;20513;-88
2022/12/08 06:08:41;;;;;;;0.98;0.50;;;2.20;99.90;;;;;;4969887;28;20039;-88
2022/12/08 06:11:07;;;;;;;3.03;0.40;;;2.20;99.90;;;;;;4975093;28;20042;-87
2022/12/08 06:13:35;;;;;;;2.85;0.45;;;2.10;99.90;;;;;;4956846;28;20394;-88
2022/12/08 06:16:07;;;;;;;1.08;0.60;;;2.10;99.90;;;;;;4972747;28;20499;-88
2022/12/08 06:18:33;;;;;;;0.80;0.40;;;2.10;99.90;;;;;;4971198;28;20065;-87
2022/12/08 06:21:07;;;;;;;1.85;0.68;;;2.10;99.90;;;;;;4973681;28;20038;-87
2022/12/08 06:23:33;;;;;;;3.05;0.65;;;2.10;99.90;;;;;;4970790;28;20572;-87
2022/12/08 06:26:04;;;;;;;0.90;0.70;;;2.10;99.90;;;;;;4974370;28;20173;-88
2022/12/08 06:28:31;;;;;;;1.60;0.60;;;2.10;99.90;;;;;;4977184;28;20038;-88
2022/12/08 06:31:07;;;;;;;3.00;1.40;;;2.00;99.90;;;;;;4967757;28;20045;-88
2022/12/08 06:33:33;;;;;;;2.88;0.95;;;2.10;99.90;;;;;;4967402;28;20046;-87
2022/12/08 06:35:58;;;;;;;1.58;0.55;;;2.10;99.90;;;;;;4969832;28;20101;-88
2022/12/08 06:38:27;;;;;;;1.88;0.57;;;2.10;99.90;;;;;;4981528;28;20038;-88
2022/12/08 06:40:57;;;;;;;3.00;0.85;;;2.10;99.90;;;;;;4990526;28;20301;-87
2022/12/08 06:43:24;;;;;;;3.47;0.75;;;2.10;99.90;;;;;;4968655;28;20276;-88
2022/12/08 06:45:50;;;;;;;3.30;1.00;;;2.10;99.90;;;;;;4977815;28;20042;-88
2022/12/08 06:48:17;;;;;;;2.10;0.68;;;2.00;99.90;;;;;;4960666;28;20591;-88
2022/12/08 06:50:43;;;;;;;1.98;0.50;;;2.10;99.90;;;;;;4980030;28;20077;-88
2022/12/08 06:53:13;;;;;;;0.68;0.68;;;2.10;99.90;;;;;;4961259;28;20141;-88
2022/12/08 06:55:51;;;;;;;6.88;0.70;;;2.00;99.90;;;;;;4963709;28;20522;-88
2022/12/08 06:58:18;;;;;;;2.15;0.80;;;2.00;99.90;;;;;;4974298;28;20122;-88
2022/12/08 07:00:44;;;;;;;2.88;1.33;;;2.00;99.90;;;;;;4962629;28;20062;-87
2022/12/08 07:03:11;;;;;;;1.90;1.30;;;1.90;99.90;;;;;;4960242;28;20243;-87
2022/12/08 07:05:38;;;;;;;1.95;1.08;;;1.80;99.90;;;;;;4979567;28;20049;-87
2022/12/08 07:08:05;;;;;;;1.88;1.05;;;1.80;99.90;;;;;;4976023;28;20053;-87
2022/12/08 07:10:32;;;;;;;2.90;1.38;;;1.80;99.90;;;;;;4959940;28;20049;-87
2022/12/08 07:12:57;;;;;;;2.63;1.50;;;1.80;99.90;;;;;;4992838;28;20069;-87
2022/12/08 07:15:23;;;;;;;2.60;1.45;;;1.80;99.90;;;;;;4978452;28;20121;-87
2022/12/08 07:17:50;;;;;;;3.65;1.70;;;1.80;99.90;;;;;;4957958;28;20058;-88
2022/12/08 07:20:15;;;;;;;5.40;2.05;;;1.80;99.90;;;;;;4972365;28;20053;-87
2022/12/08 07:22:50;;;;;;;3.80;1.52;;;1.70;99.90;;;;;;4976538;28;20046;-88
2022/12/08 07:25:17;;;;;;;;;;;1.70;99.90;;;;;;4960108;28;20042;-88
2022/12/08 07:27:42;;;;;;;4.35;1.80;;;1.70;99.90;;;;;;4967588;28;19922;-88
2022/12/08 07:30:09;;;;;;;2.53;1.38;;;1.70;99.90;;;;;;4993210;28;20398;-88
2022/12/08 07:32:37;;;;;;;2.20;1.27;;;1.70;99.90;;;;;;4993337;28;20069;-87
2022/12/08 07:35:03;;;;;;;3.47;1.70;;;1.70;99.90;;;;;;4993250;28;20057;-85
2022/12/08 07:37:33;;;;;;;3.70;1.60;;;1.70;99.90;;;;;;4992582;28;20043;-87
2022/12/08 07:39:59;;;;;;;7.05;3.22;;;1.60;99.90;;;;;;4992507;28;20370;-88
2022/12/08 07:42:25;;;;;;;4.13;1.67;;;1.60;99.90;;;;;;4993453;28;20050;-88
2022/12/08 07:44:51;;;;;;;2.53;1.70;;;1.70;99.90;;;;;;4983547;28;20061;-88
2022/12/08 07:47:16;;;;;;;2.47;1.60;;;1.60;99.90;;;;;;4990504;28;20046;-88
2022/12/08 07:49:42;;;;;;;5.78;1.85;;;1.60;99.90;;;;;;4972973;28;20060;-88
2022/12/08 07:52:08;;;;;;;3.10;1.88;;;1.60;99.90;;;;;;4980492;28;20042;-88
2022/12/08 07:54:34;;;;;;;4.32;1.48;;;1.50;99.90;;;;;;4980160;28;20046;-88
2022/12/08 07:57:02;;;;;;;5.43;1.33;;;1.50;99.90;;;;;;4962186;28;20500;-88
2022/12/08 07:59:31;;;;;;;2.40;1.50;;;1.50;99.90;;;;;;4978657;28;20504;-87
2022/12/08 08:01:57;;;;;;;4.65;1.45;;;1.60;99.90;;;;;;4983860;28;20045;-88
2022/12/08 08:04:24;;;;;;;6.72;1.85;;;1.50;99.90;;;;;;4989105;28;20049;-88
2022/12/08 08:06:49;;;;;;;4.50;1.52;;;1.50;99.90;;;;;;4964188;28;20049;-88
2022/12/08 08:09:15;;;;;;;2.78;1.40;;;1.50;99.90;;;;;;4986685;28;20141;-88
2022/12/08 08:11:41;;;;;;;5.53;1.33;;;1.50;99.90;;;;;;4968008;28;20568;-89
2022/12/08 08:14:07;;;;;;;4.22;1.40;;;1.40;99.90;;;;;;4970586;28;20041;-87
2022/12/08 08:16:36;;;;;;;3.17;1.60;;;1.40;99.90;;;;;;4982919;28;20091;-88
2022/12/08 08:19:01;;;;;;;2.75;1.50;;;1.40;99.90;;;;;;4987016;28;20541;-88
2022/12/08 08:21:27;;;;;;;4.43;1.67;;;1.50;99.90;;;;;;4983804;28;20127;-87
2022/12/08 08:23:53;;;;;;;2.42;1.67;;;1.50;99.90;;;;;;4968017;28;20535;-88
2022/12/08 08:26:19;;;;;;;3.78;1.55;;;1.50;99.90;;;;;;4966863;28;20516;-87
2022/12/08 08:28:48;;;;;;;5.15;1.40;;;1.50;99.90;;;;;;4969351;28;20050;-88
2022/12/08 08:31:24;;;;;;;2.40;1.60;;;1.50;99.90;;;;;;4976706;28;20128;-88
2022/12/08 08:33:56;;;;;;;5.93;1.63;;;1.50;99.90;;;;;;4991489;28;20455;-86
2022/12/08 08:36:21;;;;;;;3.28;1.42;;;1.50;99.90;;;;;;4986737;28;20042;-87
2022/12/08 08:38:51;;;;;;;4.72;1.60;;;1.50;99.90;;;;;;4969729;28;20046;-88
2022/12/08 08:41:17;;;;;;;3.53;1.83;;;1.60;99.90;;;;;;5001903;28;20132;-88
2022/12/08 08:43:43;;;;;;;4.10;1.70;;;1.60;99.90;;;;;;4984089;28;20120;-88
2022/12/08 08:46:09;;;;;;;5.80;1.85;;;1.70;99.90;;;;;;4994280;28;20037;-88
2022/12/08 08:48:35;;;;;;;5.75;1.88;;;1.70;99.90;;;;;;4991325;28;20449;-88
2022/12/08 08:51:15;;;;;;;3.67;1.60;;;1.80;99.90;;;;;;4975891;28;20034;-88
2022/12/08 08:53:41;;;;;;;4.45;1.95;;;1.80;99.90;;;;;;4987926;28;20045;-87
2022/12/08 08:56:10;;;;;;;5.72;1.80;;;1.90;99.90;;;;;;5005389;28;20483;-87
2022/12/08 08:58:35;;;;;;;4.00;1.50;;;1.90;99.90;;;;;;4989288;28;20490;-88
2022/12/08 09:01:01;;;;;;;5.47;1.80;;;2.00;99.90;;;;;;4998329;28;20060;-88
2022/12/08 09:03:27;;;;;;;5.38;1.63;;;1.90;99.90;;;;;;4993120;28;20042;-88
2022/12/08 09:05:56;;;;;;;8.57;2.00;;;1.90;99.90;;;;;;4997406;28;20379;-89
2022/12/08 09:08:22;;;;;;;5.80;1.73;;;2.00;99.90;;;;;;4986098;28;20397;-89
2022/12/08 09:10:48;;;;;;;5.63;2.08;;;1.90;99.90;;;;;;4981678;28;20326;-89
2022/12/08 09:13:14;;;;;;;2.78;1.90;;;1.90;99.90;;;;;;4977611;28;20042;-89
2022/12/08 09:15:40;;;;;;;4.78;2.10;;;1.90;99.90;;;;;;4981178;28;20057;-89
2022/12/08 09:18:06;;;;;;;6.55;2.22;;;2.00;99.90;;;;;;4961030;28;20042;-89
2022/12/08 09:20:33;;;;;;;3.13;1.90;;;2.00;99.90;;;;;;4978441;28;20391;-90
2022/12/08 09:23:03;;;;;;;3.40;1.95;;;2.10;99.90;;;;;;5009666;28;20065;-89
2022/12/08 09:25:29;;;;;;;5.88;1.73;;;2.20;99.90;;;;;;4969187;28;20049;-89
2022/12/08 09:27:55;;;;;;;5.05;2.13;;;2.20;99.90;;;;;;5014619;28;20045;-89
2022/12/08 09:30:21;;;;;;;6.05;2.05;;;2.40;99.90;;;;;;4962168;28;20098;-89
2022/12/08 09:32:50;;;;;;;5.68;2.30;;;2.60;99.90;;;;;;4988738;28;20136;-90
2022/12/08 09:35:16;;;;;;;7.28;2.47;;;2.70;99.90;;;;;;4992433;28;20122;-90
2022/12/08 09:37:41;;;;;;;2.95;2.00;;;2.90;99.90;;;;;;4985004;28;20113;-89
2022/12/08 09:40:10;;;;;;;5.95;2.13;;;2.90;99.90;;;;;;4977226;28;20042;-89
2022/12/08 09:43:00;;;;;;;5.28;2.15;;;3.00;99.90;;;;;;4984848;28;20502;-89
2022/12/08 09:45:32;;;;;;;5.85;2.08;;;2.90;99.90;;;;;;4968432;28;20054;-90
2022/12/08 09:48:04;;;;;;;3.30;2.00;;;3.10;99.90;;;;;;4984207;28;20034;-88
2022/12/08 09:50:41;;;;;;;4.35;1.85;;;3.00;99.90;;;;;;4989347;28;20469;-89
2022/12/08 09:53:27;;;;;;;5.45;2.15;;;3.10;99.90;;;;;;4986045;28;20026;-89
2022/12/08 09:56:23;;;;;;;3.05;1.92;;;3.10;99.90;;;;;;5002709;28;20050;-89
2022/12/08 09:59:11;;;;;;;2.90;1.73;;;3.20;99.90;;;;;;4977022;28;20046;-89
2022/12/08 10:01:42;;;;;;;7.30;1.77;;;3.20;99.90;;;;;;4982256;28;20112;-89
2022/12/08 10:04:33;;;;;;;4.63;1.80;;;3.10;99.90;;;;;;4976032;28;20097;-89
2022/12/08 10:07:30;;;;;;;4.43;1.88;;;3.20;99.90;;;;;;4987817;28;20045;-89
2022/12/08 10:10:17;;;;;;;3.83;1.75;;;3.20;99.90;;;;;;4988711;28;20561;-89
2022/12/08 10:13:02;;;;;;;6.13;2.15;;;3.30;99.90;;;;;;4986305;28;20045;-87
2022/12/08 10:15:58;;;;;;;8.95;1.88;;;3.30;99.90;;;;;;4969690;28;20133;-89
2022/12/08 10:18:32;;;;;;;4.57;2.03;;;3.40;99.90;;;;;;4985625;28;20580;-88
2022/12/08 10:21:16;;;;;;;3.13;2.00;;;3.40;99.90;;;;;;4987106;28;20044;-88
2022/12/08 10:23:47;;;;;;;6.40;2.40;;;3.50;99.90;;;;;;4973031;28;20140;-90
2022/12/08 10:26:15;;;;;;;6.15;2.05;;;3.60;99.90;;;;;;4982199;28;20309;-88
2022/12/08 10:28:42;;;;;;;8.02;2.40;;;3.80;99.90;;;;;;4977775;28;20060;-88
2022/12/08 10:31:24;;;;;;;4.93;1.98;;;3.80;99.90;;;;;;4996661;28;20057;-88
2022/12/08 10:34:09;;;;;;;4.43;1.90;;;3.80;99.90;;;;;;4993873;28;20489;-88
2022/12/08 10:36:50;;;;;;;2.55;1.45;;;3.90;99.90;;;;;;4972128;28;20144;-88
2022/12/08 10:39:44;;;;;;;5.13;1.63;;;3.90;99.90;;;;;;4984906;28;20038;-88
2022/12/08 10:42:13;;;;;;;3.70;1.48;;;3.90;99.90;;;;;;4985631;28;20053;-89
2022/12/08 10:44:58;;;;;;;4.85;1.60;;;3.90;99.90;;;;;;4985172;28;20466;-88
2022/12/08 10:47:26;;;;;;;3.35;1.38;;;4.00;99.90;;;;;;4984238;28;20489;-88
2022/12/08 10:50:20;;;;;;;6.15;1.65;;;4.00;99.90;;;;;;4981031;28;20030;-89
2022/12/08 10:53:12;;;;;;;5.85;2.00;;;4.00;99.90;;;;;;4956400;28;20528;-88
2022/12/08 10:55:44;;;;;;;5.25;1.73;;;4.00;99.90;;;;;;4991882;28;20840;-88
2022/12/08 10:58:39;;;;;;;3.73;1.87;;;4.20;99.90;;;;;;4981423;28;20647;-88
2022/12/08 11:01:22;;;;;;;3.92;1.30;;;4.10;99.90;;;;;;4982100;28;20124;-88
2022/12/08 11:03:56;;;;;;;5.80;1.55;;;4.20;99.90;;;;;;4976498;28;20049;-88
2022/12/08 11:06:28;;;;;;;7.07;1.50;;;4.20;99.90;;;;;;4977705;28;20055;-88
2022/12/08 11:09:00;;;;;;;3.72;1.52;;;4.30;99.90;;;;;;4981414;28;20406;-88
2022/12/08 11:11:44;;;;;;;5.55;1.48;;;4.40;99.90;;;;;;4965202;28;20060;-88
2022/12/08 11:14:28;;;;;;;4.95;1.65;;;4.40;99.90;;;;;;4964699;28;20258;-89
2022/12/08 11:17:28;;;;;;;7.03;1.20;;;4.40;99.90;;;;;;4982481;28;20124;-88
2022/12/08 11:20:18;;;;;;;5.35;1.52;;;4.40;99.90;;;;;;4940284;28;20436;-88
2022/12/08 11:22:50;;;;;;;4.43;1.48;;;4.40;99.90;;;;;;4980734;28;20045;-88
2022/12/08 11:25:15;;;;;;;5.00;1.58;;;4.60;99.90;;;;;;4966067;28;20536;-88
2022/12/08 11:27:47;;;;;;;6.00;1.55;;;4.60;99.90;;;;;;4980773;28;20046;-88
2022/12/08 11:30:22;;;;;;;3.65;1.65;;;4.60;99.90;;;;;;4977199;28;20261;-88
2022/12/08 11:32:49;;;;;;;;;;;4.60;99.90;;;;;;4978687;28;20165;-88
2022/12/08 11:35:31;;;;;;;6.72;1.40;;;4.50;99.90;;;;;;4975308;28;19969;-88
2022/12/08 11:38:24;;;;;;;4.25;1.40;;;4.40;99.90;;;;;;4978544;28;20235;-89
2022/12/08 11:41:03;;;;;;;2.50;1.50;;;4.50;99.90;;;;;;4975783;28;20289;-88
2022/12/08 11:43:57;;;;;;;5.15;1.40;;;4.50;99.90;;;;;;4993096;28;20034;-88
2022/12/08 11:46:30;;;;;;;4.93;1.50;;;4.50;99.90;;;;;;4959711;28;20069;-89
2022/12/08 11:49:00;;;;;;;6.20;1.10;;;4.60;99.90;;;;;;4971144;28;20294;-88
2022/12/08 11:51:57;;;;;;;2.75;1.10;;;4.60;99.90;;;;;;4975262;28;20042;-88
2022/12/08 11:54:30;;;;;;;4.30;1.10;;;4.60;99.90;;;;;;4976089;28;20100;-88
2022/12/08 11:57:00;;;;;;;3.17;0.90;;;4.70;99.90;;;;;;4978204;28;20613;-88
2022/12/08 11:59:40;;;;;;;3.97;1.25;;;4.80;99.90;;;;;;4977505;28;20493;-88
2022/12/08 12:02:17;;;;;;;2.97;0.85;;;4.90;99.90;;;;;;4959224;28;20033;-87
2022/12/08 12:04:56;;;;;;;4.25;1.10;;;5.00;99.90;;;;;;4971966;28;20213;-88
2022/12/08 12:07:39;;;;;;;2.95;1.20;;;4.80;99.90;;;;;;4977835;28;20100;-87
2022/12/08 12:10:24;;;;;;;6.38;1.52;;;4.80;99.90;;;;;;4977163;28;20042;-87
2022/12/08 12:13:17;;;;;;;2.80;0.90;;;4.80;99.90;;;;;;4977245;28;20068;-88
2022/12/08 12:15:55;;;;;;;3.83;1.30;;;4.70;99.90;;;;;;4978369;28;20560;-87
2022/12/08 12:18:45;;;;;;;3.88;1.50;;;4.70;99.90;;;;;;4974899;28;20042;-88
2022/12/08 12:21:18;;;;;;;4.63;1.08;;;4.60;99.90;;;;;;4976833;28;20054;-88
2022/12/08 12:24:13;;;;;;;2.88;1.27;;;4.40;99.90;;;;;;4977575;28;20044;-88
2022/12/08 12:27:00;;;;;;;5.05;1.80;;;4.40;99.90;;;;;;4960647;28;20427;-88
2022/12/08 12:29:30;;;;;;;4.95;1.42;;;4.30;99.90;;;;;;4974319;28;20043;-88
2022/12/08 12:32:00;;;;;;;6.20;1.60;;;4.20;99.90;;;;;;4961828;28;20486;-88
2022/12/08 12:34:32;;;;;;;5.40;1.42;;;4.10;99.90;;;;;;4976571;28;20050;-87
2022/12/08 12:37:12;;;;;;;3.33;1.20;;;4.10;99.90;;;;;;4988564;28;20041;-88
2022/12/08 12:40:10;;;;;;;4.47;1.20;;;4.00;99.90;;;;;;4965292;28;20567;-87
2022/12/08 12:42:43;;;;;;;1.88;1.10;;;3.90;99.90;;;;;;4974927;28;20045;-88
2022/12/08 12:45:20;;;;;;;5.00;1.60;;;3.90;99.90;;;;;;4992390;28;20165;-88
2022/12/08 12:48:13;;;;;;;6.85;1.50;;;3.80;99.90;;;;;;4979938;28;20823;-88
2022/12/08 12:50:49;;;;;;;4.93;1.83;;;3.80;99.90;;;;;;4964038;28;20037;-87
2022/12/08 12:53:14;;;;;;;3.97;1.70;;;3.70;99.90;;;;;;4977986;28;20030;-88
2022/12/08 12:55:56;;;;;;;5.05;1.50;;;3.70;99.90;;;;;;4964157;28;20390;-88
2022/12/08 12:58:28;;;;;;;3.00;1.60;;;3.60;99.90;;;;;;4970650;28;20045;-88
2022/12/08 13:01:20;;;;;;;6.05;1.48;;;3.60;99.90;;;;;;4975840;28;20517;-88
2022/12/08 13:04:01;;;;;;;3.75;1.75;;;3.70;99.90;;;;;;4943133;28;20124;-88
2022/12/08 13:07:00;;;;;;;3.42;1.48;;;3.90;99.90;;;;;;4975863;28;20531;-87
2022/12/08 13:09:31;;;;;;;4.30;1.60;;;4.00;99.90;;;;;;4971713;28;20054;-88
2022/12/08 13:12:11;;;;;;;4.13;1.58;;;4.10;99.90;;;;;;4974212;28;20042;-88
2022/12/08 13:14:46;;;;;;;6.10;1.92;;;4.10;99.90;;;;;;4991151;28;20038;-88
2022/12/08 13:17:15;;;;;;;5.70;1.65;;;4.20;99.90;;;;;;4978658;28;20313;-88
2022/12/08 13:19:41;;;;;;;3.00;1.42;;;4.20;99.90;;;;;;4973135;28;20106;-88
2022/12/08 13:22:48;;;;;;;8.48;1.70;;;4.20;99.90;;;;;;4962496;28;20319;-87
2022/12/08 13:25:39;;;;;;;3.33;1.80;;;4.20;99.90;;;;;;4961124;28;20041;-88
2022/12/08 13:28:22;;;;;;;2.78;1.92;;;4.40;99.90;;;;;;4978495;28;20206;-88
2022/12/08 13:30:54;;;;;;;5.28;1.80;;;4.90;99.90;;;;;;4980602;28;20044;-88